Kapalua Airport Lahaina US
ICAO: PHJH
IATA:
Category: Medium
Scheduled Services:

Elevation: 256 ft
TransAlt. 0 ft.

Airport Communications:
AWOS:118.525
MAUI RDO:123.6
CTAF/UNICOM:122.7

PHJH Zoom In..

Runways:

(A) RW 02 length 3000 ft width 100 ft
---- / hdg 17

(B) RW 20 length 3000 ft width 100 ft
---- / hdg 197

Location; PHJH
Day. 21 / Time. 23.45 Zulu
* Altimeter: 29.96
* Temperature: 24° c. 75.2°f.
* Wind from: 060° Speed 16 kn with Gusts up to 21 kn.
Dewpoint: 19° c.
Visibility: 15 Statute Miles.
Clouds: Few 3000 ft.
Clouds: Scattered 4500 ft.
Conditions: Light Rain Showers.

PHJH 212345Z 06016G21KT 15SM -SHRA FEW030 SCT045 24/19 A2996


Wind From 060°
Speed 16 kn.

jpsM music video
CHECK IT OUT

jpsM - It Moves..

 
jpsmedia.com for Web Design  worldairports.se 2018   terms of use